sensor_id;sensor_type;location;lat;lon;timestamp;pressure;altitude;pressure_sealevel;temperature;humidity
15529;BME280;7866;52.280;9.500;2022-12-07T00:02:17;100182.91;;;4.35;100.00
15529;BME280;7866;52.280;9.500;2022-12-07T00:07:18;100167.84;;;4.35;100.00
15529;BME280;7866;52.280;9.500;2022-12-07T00:12:21;100162.56;;;4.35;100.00
15529;BME280;7866;52.280;9.500;2022-12-07T00:17:23;100144.94;;;4.34;100.00
15529;BME280;7866;52.280;9.500;2022-12-07T00:22:25;100137.72;;;4.36;100.00
15529;BME280;7866;52.280;9.500;2022-12-07T00:27:28;100128.78;;;4.37;100.00
15529;BME280;7866;52.280;9.500;2022-12-07T00:32:30;100135.19;;;4.35;100.00
15529;BME280;7866;52.280;9.500;2022-12-07T00:37:31;100131.31;;;4.39;100.00
15529;BME280;7866;52.280;9.500;2022-12-07T00:42:34;100130.34;;;4.40;100.00
15529;BME280;7866;52.280;9.500;2022-12-07T00:47:36;100125.72;;;4.42;100.00
15529;BME280;7866;52.280;9.500;2022-12-07T00:52:38;100132.56;;;4.44;100.00
15529;BME280;7866;52.280;9.500;2022-12-07T00:57:41;100132.16;;;4.49;100.00
15529;BME280;7866;52.280;9.500;2022-12-07T01:02:42;100132.88;;;4.51;100.00
15529;BME280;7866;52.280;9.500;2022-12-07T01:07:44;100125.22;;;4.58;100.00
15529;BME280;7866;52.280;9.500;2022-12-07T01:12:48;100116.97;;;4.61;100.00
15529;BME280;7866;52.280;9.500;2022-12-07T01:17:49;100111.84;;;4.59;100.00
15529;BME280;7866;52.280;9.500;2022-12-07T01:22:51;100116.56;;;4.65;100.00
15529;BME280;7866;52.280;9.500;2022-12-07T01:27:54;100117.28;;;4.67;100.00
15529;BME280;7866;52.280;9.500;2022-12-07T01:32:56;100114.22;;;4.72;100.00
15529;BME280;7866;52.280;9.500;2022-12-07T01:37:58;100119.66;;;4.70;100.00
15529;BME280;7866;52.280;9.500;2022-12-07T01:43:01;100116.31;;;4.78;100.00
15529;BME280;7866;52.280;9.500;2022-12-07T01:48:04;100120.25;;;4.84;100.00
15529;BME280;7866;52.280;9.500;2022-12-07T01:53:09;100110.19;;;4.87;100.00
15529;BME280;7866;52.280;9.500;2022-12-07T01:58:13;100115.78;;;4.94;100.00
15529;BME280;7866;52.280;9.500;2022-12-07T02:03:18;100113.84;;;4.96;100.00
15529;BME280;7866;52.280;9.500;2022-12-07T02:08:21;100112.84;;;4.97;100.00
15529;BME280;7866;52.280;9.500;2022-12-07T02:13:26;100103.91;;;4.88;100.00
15529;BME280;7866;52.280;9.500;2022-12-07T02:18:39;100100.13;;;4.81;100.00
15529;BME280;7866;52.280;9.500;2022-12-07T02:24:02;100080.56;;;4.73;100.00
15529;BME280;7866;52.280;9.500;2022-12-07T02:29:18;100086.28;;;4.68;100.00
15529;BME280;7866;52.280;9.500;2022-12-07T02:34:29;100090.19;;;4.64;100.00
15529;BME280;7866;52.280;9.500;2022-12-07T02:39:39;100077.63;;;4.56;100.00
15529;BME280;7866;52.280;9.500;2022-12-07T02:44:44;100085.00;;;4.53;99.99
15529;BME280;7866;52.280;9.500;2022-12-07T02:49:47;100074.09;;;4.46;100.00
15529;BME280;7866;52.280;9.500;2022-12-07T02:54:50;100073.69;;;4.41;100.00
15529;BME280;7866;52.280;9.500;2022-12-07T03:00:01;100078.28;;;4.39;100.00
15529;BME280;7866;52.280;9.500;2022-12-07T03:10:34;100064.91;;;4.50;100.00
15529;BME280;7866;52.280;9.500;2022-12-07T03:15:45;100068.94;;;4.54;100.00
15529;BME280;7866;52.280;9.500;2022-12-07T03:20:51;100055.13;;;4.51;100.00
15529;BME280;7866;52.280;9.500;2022-12-07T03:25:57;100058.50;;;4.53;100.00
15529;BME280;7866;52.280;9.500;2022-12-07T03:31:06;100045.09;;;4.54;100.00
15529;BME280;7866;52.280;9.500;2022-12-07T03:36:14;100054.59;;;4.47;100.00
15529;BME280;7866;52.280;9.500;2022-12-07T03:41:22;100050.69;;;4.51;99.99
15529;BME280;7866;52.280;9.500;2022-12-07T03:46:32;100062.50;;;4.37;100.00
15529;BME280;7866;52.280;9.500;2022-12-07T03:51:40;100056.78;;;4.42;100.00
15529;BME280;7866;52.280;9.500;2022-12-07T03:56:45;100057.09;;;4.39;98.88
15529;BME280;7866;52.280;9.500;2022-12-07T04:01:54;100059.00;;;4.37;99.60
15529;BME280;7866;52.280;9.500;2022-12-07T04:06:56;100062.66;;;4.36;99.41
15529;BME280;7866;52.280;9.500;2022-12-07T04:11:58;100053.97;;;4.34;99.54
15529;BME280;7866;52.280;9.500;2022-12-07T04:17:01;100063.34;;;4.38;99.49
15529;BME280;7866;52.280;9.500;2022-12-07T04:22:04;100061.81;;;4.35;99.32
15529;BME280;7866;52.280;9.500;2022-12-07T04:27:06;100060.69;;;4.38;99.13
15529;BME280;7866;52.280;9.500;2022-12-07T04:32:09;100056.78;;;4.42;97.95
15529;BME280;7866;52.280;9.500;2022-12-07T04:37:10;100055.94;;;4.41;98.87
15529;BME280;7866;52.280;9.500;2022-12-07T04:42:12;100045.91;;;4.35;97.14
15529;BME280;7866;52.280;9.500;2022-12-07T04:47:15;100055.78;;;4.33;96.49
15529;BME280;7866;52.280;9.500;2022-12-07T04:52:17;100055.94;;;4.32;96.61
15529;BME280;7866;52.280;9.500;2022-12-07T04:57:18;100056.22;;;4.29;97.20
15529;BME280;7866;52.280;9.500;2022-12-07T05:02:21;100046.19;;;4.32;96.77
15529;BME280;7866;52.280;9.500;2022-12-07T05:07:23;100040.72;;;4.34;95.61
15529;BME280;7866;52.280;9.500;2022-12-07T05:12:25;100040.16;;;4.30;96.33
15529;BME280;7866;52.280;9.500;2022-12-07T05:17:28;100039.06;;;4.33;96.01
15529;BME280;7866;52.280;9.500;2022-12-07T05:22:29;100030.84;;;4.36;95.88
15529;BME280;7866;52.280;9.500;2022-12-07T05:27:31;100025.53;;;4.36;95.75
15529;BME280;7866;52.280;9.500;2022-12-07T05:32:34;100045.63;;;4.38;95.81
15529;BME280;7866;52.280;9.500;2022-12-07T05:37:36;100043.25;;;4.35;94.87
15529;BME280;7866;52.280;9.500;2022-12-07T05:42:37;100043.63;;;4.31;95.43
15529;BME280;7866;52.280;9.500;2022-12-07T05:47:41;100036.94;;;4.27;95.47
15529;BME280;7866;52.280;9.500;2022-12-07T05:52:42;100038.06;;;4.24;96.81
15529;BME280;7866;52.280;9.500;2022-12-07T05:57:44;100033.34;;;4.28;97.00
15529;BME280;7866;52.280;9.500;2022-12-07T06:03:07;100041.00;;;4.31;97.10
15529;BME280;7866;52.280;9.500;2022-12-07T06:08:09;100032.19;;;4.20;95.90
15529;BME280;7866;52.280;9.500;2022-12-07T06:13:10;100030.66;;;4.18;95.94
15529;BME280;7866;52.280;9.500;2022-12-07T06:18:13;100037.66;;;4.19;96.03
15529;BME280;7866;52.280;9.500;2022-12-07T06:23:15;100040.00;;;4.22;96.65
15529;BME280;7866;52.280;9.500;2022-12-07T06:28:16;100049.75;;;4.22;96.48
15529;BME280;7866;52.280;9.500;2022-12-07T06:33:19;100044.72;;;4.18;96.23
15529;BME280;7866;52.280;9.500;2022-12-07T06:38:21;100045.72;;;4.17;95.31
15529;BME280;7866;52.280;9.500;2022-12-07T06:43:23;100046.94;;;4.13;95.71
15529;BME280;7866;52.280;9.500;2022-12-07T06:48:26;100057.66;;;4.02;96.48
15529;BME280;7866;52.280;9.500;2022-12-07T06:53:27;100057.66;;;4.02;96.60
15529;BME280;7866;52.280;9.500;2022-12-07T06:58:29;100056.13;;;4.00;96.24
15529;BME280;7866;52.280;9.500;2022-12-07T07:03:33;100060.38;;;3.91;97.52
15529;BME280;7866;52.280;9.500;2022-12-07T07:08:34;100048.13;;;3.90;97.50
15529;BME280;7866;52.280;9.500;2022-12-07T07:13:36;100044.78;;;3.88;97.86
15529;BME280;7866;52.280;9.500;2022-12-07T07:18:40;100053.56;;;3.88;98.34
15529;BME280;7866;52.280;9.500;2022-12-07T07:23:41;100064.28;;;3.87;98.89
15529;BME280;7866;52.280;9.500;2022-12-07T07:28:43;100074.19;;;3.85;98.08
15529;BME280;7866;52.280;9.500;2022-12-07T07:33:46;100065.69;;;3.91;98.15
15529;BME280;7866;52.280;9.500;2022-12-07T07:38:48;100068.34;;;3.91;98.45
15529;BME280;7866;52.280;9.500;2022-12-07T07:43:50;100067.38;;;3.92;98.83
15529;BME280;7866;52.280;9.500;2022-12-07T07:48:53;100075.34;;;3.92;98.35
15529;BME280;7866;52.280;9.500;2022-12-07T07:53:54;100076.75;;;3.96;97.92
15529;BME280;7866;52.280;9.500;2022-12-07T07:58:56;100079.13;;;3.99;97.66
15529;BME280;7866;52.280;9.500;2022-12-07T08:03:59;100082.47;;;4.01;98.21
15529;BME280;7866;52.280;9.500;2022-12-07T08:09:01;100087.78;;;4.01;97.43
15529;BME280;7866;52.280;9.500;2022-12-07T08:14:03;100097.56;;;4.10;98.01
15529;BME280;7866;52.280;9.500;2022-12-07T08:19:06;100092.72;;;4.15;96.79
15529;BME280;7866;52.280;9.500;2022-12-07T08:24:08;100089.25;;;4.15;97.04
15529;BME280;7866;52.280;9.500;2022-12-07T08:29:10;100078.91;;;4.22;97.13
15529;BME280;7866;52.280;9.500;2022-12-07T08:34:13;100095.53;;;4.24;97.26
15529;BME280;7866;52.280;9.500;2022-12-07T08:39:15;100085.22;;;4.30;96.87
15529;BME280;7866;52.280;9.500;2022-12-07T08:44:16;100092.06;;;4.33;95.33
15529;BME280;7866;52.280;9.500;2022-12-07T08:49:22;100086.47;;;4.26;94.38
15529;BME280;7866;52.280;9.500;2022-12-07T08:54:25;100088.16;;;4.27;95.20
15529;BME280;7866;52.280;9.500;2022-12-07T08:59:28;100092.34;;;4.30;94.70
15529;BME280;7866;52.280;9.500;2022-12-07T09:04:31;100101.53;;;4.26;95.07
15529;BME280;7866;52.280;9.500;2022-12-07T09:09:33;100107.31;;;4.40;94.31
15529;BME280;7866;52.280;9.500;2022-12-07T09:14:34;100129.44;;;4.30;94.25
15529;BME280;7866;52.280;9.500;2022-12-07T09:19:38;100122.31;;;4.30;94.57
15529;BME280;7866;52.280;9.500;2022-12-07T09:24:41;100108.66;;;4.25;94.49
15529;BME280;7866;52.280;9.500;2022-12-07T09:29:43;100097.47;;;4.22;94.48
15529;BME280;7866;52.280;9.500;2022-12-07T09:34:46;100097.03;;;4.16;95.12
15529;BME280;7866;52.280;9.500;2022-12-07T09:39:48;100087.28;;;4.17;95.62
15529;BME280;7866;52.280;9.500;2022-12-07T09:44:50;100098.31;;;4.22;96.35
15529;BME280;7866;52.280;9.500;2022-12-07T09:49:54;100085.50;;;4.27;95.37
15529;BME280;7866;52.280;9.500;2022-12-07T09:54:59;100075.44;;;4.31;95.32
15529;BME280;7866;52.280;9.500;2022-12-07T10:00:06;100086.94;;;4.51;94.05
15529;BME280;7866;52.280;9.500;2022-12-07T10:05:13;100076.63;;;4.57;94.72
15529;BME280;7866;52.280;9.500;2022-12-07T10:10:20;100081.09;;;4.47;94.11
15529;BME280;7866;52.280;9.500;2022-12-07T10:15:42;100086.13;;;4.60;93.73
15529;BME280;7866;52.280;9.500;2022-12-07T10:20:47;100082.09;;;4.56;94.45
15529;BME280;7866;52.280;9.500;2022-12-07T10:25:49;100072.75;;;4.71;93.14
15529;BME280;7866;52.280;9.500;2022-12-07T10:30:57;100089.94;;;4.67;93.26
15529;BME280;7866;52.280;9.500;2022-12-07T10:36:19;100078.06;;;4.71;92.42
15529;BME280;7866;52.280;9.500;2022-12-07T10:41:21;100078.88;;;4.62;93.62
15529;BME280;7866;52.280;9.500;2022-12-07T10:52:01;100062.81;;;4.54;92.91
15529;BME280;7866;52.280;9.500;2022-12-07T10:57:20;100063.78;;;4.62;92.34
15529;BME280;7866;52.280;9.500;2022-12-07T11:02:31;100062.69;;;4.65;92.95
15529;BME280;7866;52.280;9.500;2022-12-07T11:07:45;100053.47;;;4.69;92.85
15529;BME280;7866;52.280;9.500;2022-12-07T11:13:01;100056.31;;;4.87;91.69
15529;BME280;7866;52.280;9.500;2022-12-07T11:18:10;100048.47;;;4.95;91.75
15529;BME280;7866;52.280;9.500;2022-12-07T11:23:27;100041.31;;;5.05;90.94
15529;BME280;7866;52.280;9.500;2022-12-07T11:28:51;100042.16;;;5.06;89.38
15529;BME280;7866;52.280;9.500;2022-12-07T11:34:00;100048.31;;;5.16;88.78
15529;BME280;7866;52.280;9.500;2022-12-07T11:39:15;100043.13;;;5.14;88.14
15529;BME280;7866;52.280;9.500;2022-12-07T11:44:27;100043.53;;;5.29;87.13
15529;BME280;7866;52.280;9.500;2022-12-07T11:49:41;100031.53;;;5.35;87.93
15529;BME280;7866;52.280;9.500;2022-12-07T11:54:46;100027.34;;;5.23;87.81
15529;BME280;7866;52.280;9.500;2022-12-07T11:59:51;100020.22;;;5.13;88.34
15529;BME280;7866;52.280;9.500;2022-12-07T12:04:55;100011.56;;;5.21;88.99
15529;BME280;7866;52.280;9.500;2022-12-07T12:10:05;100014.47;;;5.28;89.27
15529;BME280;7866;52.280;9.500;2022-12-07T12:15:23;100000.38;;;5.17;88.04
15529;BME280;7866;52.280;9.500;2022-12-07T12:20:31;100008.78;;;5.13;88.50
15529;BME280;7866;52.280;9.500;2022-12-07T12:25:40;100008.50;;;5.16;89.33
15529;BME280;7866;52.280;9.500;2022-12-07T12:30:42;99996.72;;;5.18;88.29
15529;BME280;7866;52.280;9.500;2022-12-07T12:35:44;99998.28;;;5.21;88.40
15529;BME280;7866;52.280;9.500;2022-12-07T12:40:48;99988.94;;;5.17;87.09
15529;BME280;7866;52.280;9.500;2022-12-07T12:45:49;99982.22;;;5.13;87.34
15529;BME280;7866;52.280;9.500;2022-12-07T12:51:36;99970.78;;;5.12;89.00
15529;BME280;7866;52.280;9.500;2022-12-07T12:56:43;99972.72;;;5.10;88.73
15529;BME280;7866;52.280;9.500;2022-12-07T13:01:49;99969.78;;;5.13;88.72
15529;BME280;7866;52.280;9.500;2022-12-07T13:06:52;99968.41;;;5.19;87.87
15529;BME280;7866;52.280;9.500;2022-12-07T13:12:01;99973.28;;;5.24;88.30
15529;BME280;7866;52.280;9.500;2022-12-07T13:17:04;99970.19;;;5.18;88.46
15529;BME280;7866;52.280;9.500;2022-12-07T13:27:45;99964.59;;;5.22;87.99
15529;BME280;7866;52.280;9.500;2022-12-07T13:32:52;99965.16;;;5.25;87.75
15529;BME280;7866;52.280;9.500;2022-12-07T13:37:54;99955.38;;;5.26;87.85
15529;BME280;7866;52.280;9.500;2022-12-07T13:43:03;99947.16;;;5.19;87.23
15529;BME280;7866;52.280;9.500;2022-12-07T13:48:05;99944.25;;;5.12;87.51
15529;BME280;7866;52.280;9.500;2022-12-07T13:53:12;99948.97;;;5.18;87.52
15529;BME280;7866;52.280;9.500;2022-12-07T13:58:15;99944.78;;;5.16;88.65
15529;BME280;7866;52.280;9.500;2022-12-07T14:03:26;99936.44;;;5.11;87.44
15529;BME280;7866;52.280;9.500;2022-12-07T14:08:30;99934.44;;;5.13;87.83
15529;BME280;7866;52.280;9.500;2022-12-07T14:13:34;99941.47;;;5.04;87.28
15529;BME280;7866;52.280;9.500;2022-12-07T14:18:40;99935.75;;;4.99;86.95
15529;BME280;7866;52.280;9.500;2022-12-07T14:23:42;99941.75;;;5.01;86.18
15529;BME280;7866;52.280;9.500;2022-12-07T14:28:46;99936.44;;;5.01;87.55
15529;BME280;7866;52.280;9.500;2022-12-07T14:33:48;99927.81;;;4.99;87.45
15529;BME280;7866;52.280;9.500;2022-12-07T14:38:50;99944.56;;;5.00;87.89
15529;BME280;7866;52.280;9.500;2022-12-07T14:43:55;99939.69;;;4.95;86.84
15529;BME280;7866;52.280;9.500;2022-12-07T14:48:57;99934.25;;;4.87;87.25
15529;BME280;7866;52.280;9.500;2022-12-07T14:53:59;99926.13;;;4.79;86.46
15529;BME280;7866;52.280;9.500;2022-12-07T14:59:02;99934.53;;;4.74;86.76
15529;BME280;7866;52.280;9.500;2022-12-07T15:04:04;99939.84;;;4.64;87.36
15529;BME280;7866;52.280;9.500;2022-12-07T15:09:06;99940.41;;;4.58;87.66
15529;BME280;7866;52.280;9.500;2022-12-07T15:14:09;99929.53;;;4.52;87.40
15529;BME280;7866;52.280;9.500;2022-12-07T15:19:13;99940.28;;;4.50;86.76
15529;BME280;7866;52.280;9.500;2022-12-07T15:24:15;99928.56;;;4.43;87.64
15529;BME280;7866;52.280;9.500;2022-12-07T15:29:18;99938.88;;;4.36;88.21
15529;BME280;7866;52.280;9.500;2022-12-07T15:34:20;99937.50;;;4.32;87.71
15529;BME280;7866;52.280;9.500;2022-12-07T15:39:22;99936.78;;;4.30;88.58
15529;BME280;7866;52.280;9.500;2022-12-07T15:44:25;99936.22;;;4.27;88.46
15529;BME280;7866;52.280;9.500;2022-12-07T15:49:59;99920.06;;;4.20;89.56
15529;BME280;7866;52.280;9.500;2022-12-07T15:55:01;99932.75;;;4.16;88.85
15529;BME280;7866;52.280;9.500;2022-12-07T16:00:07;99916.41;;;4.11;90.10
15529;BME280;7866;52.280;9.500;2022-12-07T16:05:10;99918.22;;;4.11;88.91
15529;BME280;7866;52.280;9.500;2022-12-07T16:10:11;99920.84;;;4.11;90.20
15529;BME280;7866;52.280;9.500;2022-12-07T16:15:15;99921.72;;;4.11;90.30
15529;BME280;7866;52.280;9.500;2022-12-07T16:20:16;99918.09;;;4.12;89.42
15529;BME280;7866;52.280;9.500;2022-12-07T16:25:18;99917.38;;;4.10;89.24
15529;BME280;7866;52.280;9.500;2022-12-07T16:30:21;99918.78;;;4.14;89.89
15529;BME280;7866;52.280;9.500;2022-12-07T16:35:23;99924.22;;;4.13;89.76
15529;BME280;7866;52.280;9.500;2022-12-07T16:40:25;99916.41;;;4.11;89.85
15529;BME280;7866;52.280;9.500;2022-12-07T16:45:28;99898.84;;;4.01;89.56
15529;BME280;7866;52.280;9.500;2022-12-07T16:50:29;99904.81;;;3.93;90.32
15529;BME280;7866;52.280;9.500;2022-12-07T16:55:31;99908.72;;;3.89;89.51
15529;BME280;7866;52.280;9.500;2022-12-07T17:00:35;99901.84;;;3.77;90.50
15529;BME280;7866;52.280;9.500;2022-12-07T17:05:38;99891.28;;;3.86;90.64
15529;BME280;7866;52.280;9.500;2022-12-07T17:10:42;99886.81;;;3.77;91.30
15529;BME280;7866;52.280;9.500;2022-12-07T17:15:54;99890.69;;;3.73;92.21
15529;BME280;7866;52.280;9.500;2022-12-07T17:21:02;99889.28;;;3.69;92.46
15529;BME280;7866;52.280;9.500;2022-12-07T17:26:05;99890.41;;;3.66;92.93
15529;BME280;7866;52.280;9.500;2022-12-07T17:31:11;99890.97;;;3.70;93.29
15529;BME280;7866;52.280;9.500;2022-12-07T17:36:14;99891.78;;;3.70;92.92
15529;BME280;7866;52.280;9.500;2022-12-07T17:41:19;99902.13;;;3.74;92.95
15529;BME280;7866;52.280;9.500;2022-12-07T17:46:37;99880.81;;;3.75;92.81
15529;BME280;7866;52.280;9.500;2022-12-07T17:51:39;99888.50;;;3.88;92.72
15529;BME280;7866;52.280;9.500;2022-12-07T17:56:58;99887.00;;;3.95;91.78
15529;BME280;7866;52.280;9.500;2022-12-07T18:02:01;99889.34;;;3.98;92.20
15529;BME280;7866;52.280;9.500;2022-12-07T18:07:03;99874.16;;;4.00;91.96
15529;BME280;7866;52.280;9.500;2022-12-07T18:12:06;99869.97;;;4.07;91.57
15529;BME280;7866;52.280;9.500;2022-12-07T18:17:09;99863.69;;;4.08;91.46
15529;BME280;7866;52.280;9.500;2022-12-07T18:22:11;99867.31;;;4.07;91.67
15529;BME280;7866;52.280;9.500;2022-12-07T18:27:13;99857.84;;;4.05;92.19
15529;BME280;7866;52.280;9.500;2022-12-07T18:32:16;99858.25;;;4.00;92.88
15529;BME280;7866;52.280;9.500;2022-12-07T18:37:17;99856.44;;;4.01;92.85
15529;BME280;7866;52.280;9.500;2022-12-07T18:42:19;99859.66;;;4.04;92.69
15529;BME280;7866;52.280;9.500;2022-12-07T18:47:22;99861.47;;;4.04;92.22
15529;BME280;7866;52.280;9.500;2022-12-07T18:52:24;99859.38;;;4.07;92.53
15529;BME280;7866;52.280;9.500;2022-12-07T18:57:26;99854.19;;;4.06;92.40
15529;BME280;7866;52.280;9.500;2022-12-07T19:02:29;99845.41;;;4.05;92.65
15529;BME280;7866;52.280;9.500;2022-12-07T19:07:30;99839.44;;;4.03;92.83
15529;BME280;7866;52.280;9.500;2022-12-07T19:12:32;99840.53;;;4.01;92.13
15529;BME280;7866;52.280;9.500;2022-12-07T19:17:35;99844.03;;;4.01;93.59
15529;BME280;7866;52.280;9.500;2022-12-07T19:22:37;99835.50;;;3.98;93.25
15529;BME280;7866;52.280;9.500;2022-12-07T19:27:39;99839.97;;;3.97;93.22
15529;BME280;7866;52.280;9.500;2022-12-07T19:32:42;99825.63;;;4.00;92.62
15529;BME280;7866;52.280;9.500;2022-12-07T19:37:44;99831.88;;;3.99;92.85
15529;BME280;7866;52.280;9.500;2022-12-07T19:42:45;99827.44;;;3.99;93.50
15529;BME280;7866;52.280;9.500;2022-12-07T19:47:48;99811.25;;;3.92;93.41
15529;BME280;7866;52.280;9.500;2022-12-07T19:52:50;99818.81;;;3.87;94.00
15529;BME280;7866;52.280;9.500;2022-12-07T19:57:52;99810.13;;;3.85;94.31
15529;BME280;7866;52.280;9.500;2022-12-07T20:02:55;99808.75;;;3.81;95.29
15529;BME280;7866;52.280;9.500;2022-12-07T20:07:56;99801.38;;;3.85;95.43
15529;BME280;7866;52.280;9.500;2022-12-07T20:12:58;99800.38;;;3.86;95.97
15529;BME280;7866;52.280;9.500;2022-12-07T20:18:19;99792.03;;;3.81;96.43
15529;BME280;7866;52.280;9.500;2022-12-07T20:23:21;99775.72;;;3.85;95.54
15529;BME280;7866;52.280;9.500;2022-12-07T20:28:22;99777.25;;;3.88;95.68
15529;BME280;7866;52.280;9.500;2022-12-07T20:33:25;99771.94;;;3.88;95.59
15529;BME280;7866;52.280;9.500;2022-12-07T20:38:28;99763.56;;;3.83;95.76
15529;BME280;7866;52.280;9.500;2022-12-07T20:43:31;99759.97;;;3.84;95.19
15529;BME280;7866;52.280;9.500;2022-12-07T20:48:34;99748.81;;;3.80;95.68
15529;BME280;7866;52.280;9.500;2022-12-07T20:53:36;99756.34;;;3.85;95.80
15529;BME280;7866;52.280;9.500;2022-12-07T20:58:38;99746.56;;;3.85;95.78
15529;BME280;7866;52.280;9.500;2022-12-07T21:03:41;99752.84;;;3.84;95.17
15529;BME280;7866;52.280;9.500;2022-12-07T21:08:43;99740.44;;;3.85;95.54
15529;BME280;7866;52.280;9.500;2022-12-07T21:13:46;99746.16;;;3.90;95.87
15529;BME280;7866;52.280;9.500;2022-12-07T21:18:49;99738.91;;;3.92;95.65
15529;BME280;7866;52.280;9.500;2022-12-07T21:23:53;99736.53;;;3.89;95.30
15529;BME280;7866;52.280;9.500;2022-12-07T21:28:55;99731.41;;;3.87;95.15
15529;BME280;7866;52.280;9.500;2022-12-07T21:34:00;99724.41;;;3.86;95.27
15529;BME280;7866;52.280;9.500;2022-12-07T21:39:02;99715.63;;;3.86;95.60
15529;BME280;7866;52.280;9.500;2022-12-07T21:44:06;99718.00;;;3.89;94.91
15529;BME280;7866;52.280;9.500;2022-12-07T21:49:12;99711.03;;;3.88;94.53
15529;BME280;7866;52.280;9.500;2022-12-07T21:54:14;99705.84;;;3.86;94.93
15529;BME280;7866;52.280;9.500;2022-12-07T21:59:16;99707.13;;;3.82;94.53
15529;BME280;7866;52.280;9.500;2022-12-07T22:04:23;99707.25;;;3.90;94.09
15529;BME280;7866;52.280;9.500;2022-12-07T22:09:25;99717.28;;;3.87;94.28
15529;BME280;7866;52.280;9.500;2022-12-07T22:14:29;99723.69;;;3.94;93.74
15529;BME280;7866;52.280;9.500;2022-12-07T22:19:49;99705.84;;;3.96;94.08
15529;BME280;7866;52.280;9.500;2022-12-07T22:24:51;99703.88;;;3.98;93.70
15529;BME280;7866;52.280;9.500;2022-12-07T22:29:53;99693.00;;;4.01;93.89
15529;BME280;7866;52.280;9.500;2022-12-07T22:34:56;99687.31;;;3.96;94.65
15529;BME280;7866;52.280;9.500;2022-12-07T22:39:57;99686.59;;;3.94;95.55
15529;BME280;7866;52.280;9.500;2022-12-07T22:44:59;99688.97;;;3.97;94.87
15529;BME280;7866;52.280;9.500;2022-12-07T22:50:03;99679.91;;;4.00;95.77
15529;BME280;7866;52.280;9.500;2022-12-07T22:55:07;99681.03;;;3.97;95.80
15529;BME280;7866;52.280;9.500;2022-12-07T23:00:11;99669.75;;;3.95;94.91
15529;BME280;7866;52.280;9.500;2022-12-07T23:05:15;99667.09;;;3.95;95.08
15529;BME280;7866;52.280;9.500;2022-12-07T23:10:16;99660.81;;;3.96;94.46
15529;BME280;7866;52.280;9.500;2022-12-07T23:15:18;99654.09;;;4.02;94.54
15529;BME280;7866;52.280;9.500;2022-12-07T23:20:21;99658.28;;;4.04;94.23
15529;BME280;7866;52.280;9.500;2022-12-07T23:25:23;99648.69;;;4.03;93.43
15529;BME280;7866;52.280;9.500;2022-12-07T23:30:25;99633.06;;;4.00;93.97
15529;BME280;7866;52.280;9.500;2022-12-07T23:35:28;99626.22;;;3.98;93.35
15529;BME280;7866;52.280;9.500;2022-12-07T23:40:29;99621.91;;;3.97;93.19
15529;BME280;7866;52.280;9.500;2022-12-07T23:45:31;99615.78;;;3.96;93.08
15529;BME280;7866;52.280;9.500;2022-12-07T23:50:34;99622.06;;;3.95;93.64
15529;BME280;7866;52.280;9.500;2022-12-07T23:55:35;99630.31;;;3.92;92.92
